JBU40 SKRG-KFLL
Flight info
| Callsign | JBU40 |
|---|---|
| Flight time | N/A |
| Altitude | 36000 |
| Route | LATIS1B LATIS W65 BUTAL UP778 CTG UM779 KILER DCT MLY UT172 BEMOL UL417 BORDO OLAHS3 |
| Aircraft | A320/M-SDE3FGHIRWY/LB1 |
Departure
| Time | 2026-04-25 20:42 |
|---|---|
| Airport | Jose Maria Córdova International Airport (SKRG) |
Arrival
| Time | N/A |
|---|---|
| Airport | Fort Lauderdale Hollywood International Airport (KFLL) |
| Time | Latitude | Longitude | Altitude | Speed | Heading |
|---|---|---|---|---|---|
| 2026-04-25 20:12 | 6.17256 | -75.42725 | 7002 ft | 0 kts | 230° |
| 2026-04-25 20:30 | 6.17262 | -75.42718 | 7002 ft | 2 kts | 229° |
| 2026-04-25 20:30 | 6.17272 | -75.42706 | 7002 ft | 1 kts | 230° |
| 2026-04-25 20:31 | 6.17279 | -75.42699 | 7001 ft | 2 kts | 222° |
| 2026-04-25 20:31 | 6.17292 | -75.42691 | 7001 ft | 2 kts | 199° |
| 2026-04-25 20:31 | 6.17307 | -75.42688 | 7001 ft | 2 kts | 179° |
| 2026-04-25 20:31 | 6.17321 | -75.42690 | 7001 ft | 2 kts | 159° |
| 2026-04-25 20:32 | 6.17335 | -75.42698 | 7001 ft | 2 kts | 139° |
| 2026-04-25 20:32 | 6.17341 | -75.42705 | 7002 ft | 1 kts | 126° |
| 2026-04-25 20:32 | 6.17344 | -75.42709 | 7002 ft | 0 kts | 125° |
| 2026-04-25 20:35 | 6.17341 | -75.42705 | 7002 ft | 5 kts | 125° |
| 2026-04-25 20:35 | 6.17280 | -75.42632 | 6999 ft | 16 kts | 152° |
| 2026-04-25 20:36 | 6.17174 | -75.42619 | 6998 ft | 17 kts | 177° |
| 2026-04-25 20:36 | 6.17051 | -75.42596 | 6995 ft | 18 kts | 154° |
| 2026-04-25 20:36 | 6.16943 | -75.42533 | 6989 ft | 18 kts | 148° |
| 2026-04-25 20:36 | 6.16826 | -75.42484 | 6983 ft | 18 kts | 178° |
| 2026-04-25 20:37 | 6.16677 | -75.42483 | 6977 ft | 26 kts | 180° |
| 2026-04-25 20:37 | 6.16473 | -75.42481 | 6970 ft | 30 kts | 179° |
| 2026-04-25 20:37 | 6.16281 | -75.42477 | 6970 ft | 26 kts | 179° |
| 2026-04-25 20:37 | 6.16113 | -75.42477 | 6969 ft | 22 kts | 180° |
| 2026-04-25 20:38 | 6.15934 | -75.42477 | 6968 ft | 28 kts | 179° |
| 2026-04-25 20:38 | 6.15718 | -75.42475 | 6964 ft | 32 kts | 180° |
| 2026-04-25 20:38 | 6.15510 | -75.42476 | 6960 ft | 29 kts | 178° |
| 2026-04-25 20:38 | 6.15332 | -75.42474 | 6960 ft | 25 kts | 180° |
| 2026-04-25 20:39 | 6.15164 | -75.42473 | 6957 ft | 22 kts | 180° |
| 2026-04-25 20:39 | 6.15025 | -75.42473 | 6951 ft | 21 kts | 180° |
| 2026-04-25 20:39 | 6.14870 | -75.42486 | 6940 ft | 17 kts | 183° |
| 2026-04-25 20:39 | 6.14824 | -75.42461 | 6936 ft | 11 kts | 113° |
| 2026-04-25 20:40 | 6.14819 | -75.42428 | 6935 ft | 0 kts | 90° |
| 2026-04-25 20:41 | 6.14822 | -75.42405 | 6935 ft | 7 kts | 70° |
| 2026-04-25 20:41 | 6.14872 | -75.42354 | 6938 ft | 13 kts | 46° |
| 2026-04-25 20:41 | 6.14998 | -75.42304 | 6947 ft | 39 kts | 358° |
| 2026-04-25 20:41 | 6.15496 | -75.42307 | 6956 ft | 104 kts | 360° |
| 2026-04-25 20:42 | 6.16415 | -75.42312 | 6965 ft | 161 kts | 359° |
| 2026-04-25 20:42 | 6.17639 | -75.42316 | 7253 ft | 184 kts | 1° |
| 2026-04-25 20:42 | 6.18870 | -75.42320 | 7936 ft | 181 kts | 1° |
| 2026-04-25 20:42 | 6.20112 | -75.42323 | 8595 ft | 183 kts | 1° |
| 2026-04-25 20:43 | 6.21377 | -75.42152 | 9096 ft | 189 kts | 26° |
| 2026-04-25 20:43 | 6.22285 | -75.41323 | 9296 ft | 196 kts | 64° |
| 2026-04-25 20:43 | 6.22499 | -75.39899 | 9525 ft | 205 kts | 96° |
| 2026-04-25 20:43 | 6.22408 | -75.38455 | 9732 ft | 218 kts | 82° |
| 2026-04-25 20:44 | 6.22897 | -75.36998 | 9958 ft | 230 kts | 64° |
| 2026-04-25 20:44 | 6.23675 | -75.35529 | 10100 ft | 250 kts | 61° |
| 2026-04-25 20:44 | 6.24519 | -75.33975 | 10389 ft | 265 kts | 62° |
| 2026-04-25 20:44 | 6.25389 | -75.32300 | 10673 ft | 280 kts | 63° |
| 2026-04-25 20:45 | 6.26276 | -75.30534 | 10949 ft | 295 kts | 64° |
| 2026-04-25 20:45 | 6.27126 | -75.28809 | 11199 ft | 308 kts | 64° |
| 2026-04-25 20:45 | 6.27990 | -75.27090 | 11430 ft | 321 kts | 59° |
| 2026-04-25 20:45 | 6.29299 | -75.25522 | 11732 ft | 331 kts | 38° |
| 2026-04-25 20:46 | 6.31480 | -75.24426 | 12344 ft | 333 kts | 13° |
| 2026-04-25 20:46 | 6.33826 | -75.24229 | 12961 ft | 334 kts | 0° |
| 2026-04-25 20:46 | 6.36161 | -75.24267 | 13504 ft | 337 kts | 359° |
| 2026-04-25 20:46 | 6.38520 | -75.24313 | 14026 ft | 341 kts | 360° |
| 2026-04-25 20:47 | 6.40886 | -75.24340 | 14560 ft | 343 kts | 0° |
| 2026-04-25 20:47 | 6.43235 | -75.24354 | 15082 ft | 346 kts | 359° |
| 2026-04-25 20:47 | 6.45585 | -75.24493 | 15590 ft | 348 kts | 354° |
| 2026-04-25 20:47 | 6.47979 | -75.24879 | 16100 ft | 351 kts | 348° |
| 2026-04-25 20:48 | 6.50318 | -75.25452 | 16597 ft | 354 kts | 346° |
| 2026-04-25 20:48 | 6.52449 | -75.26014 | 17040 ft | 356 kts | 346° |
| 2026-04-25 20:48 | 6.54955 | -75.26683 | 17549 ft | 358 kts | 346° |
| 2026-04-25 20:48 | 6.57333 | -75.27316 | 18024 ft | 361 kts | 346° |
| 2026-04-25 20:49 | 6.59727 | -75.27949 | 18488 ft | 363 kts | 346° |
| 2026-04-25 20:49 | 6.62104 | -75.28575 | 18934 ft | 365 kts | 346° |
| 2026-04-25 20:49 | 6.64496 | -75.29205 | 19369 ft | 368 kts | 346° |
| 2026-04-25 20:49 | 6.66978 | -75.29858 | 19808 ft | 370 kts | 346° |
| 2026-04-25 20:50 | 6.69320 | -75.30473 | 20210 ft | 372 kts | 346° |
| 2026-04-25 20:50 | 6.71869 | -75.31142 | 20632 ft | 375 kts | 346° |
| 2026-04-25 20:50 | 6.74349 | -75.31794 | 21030 ft | 377 kts | 346° |
| 2026-04-25 20:50 | 6.76902 | -75.32465 | 21433 ft | 380 kts | 346° |
| 2026-04-25 20:51 | 6.79444 | -75.33132 | 21829 ft | 382 kts | 346° |
| 2026-04-25 20:51 | 6.82006 | -75.33806 | 22219 ft | 384 kts | 346° |
| 2026-04-25 20:51 | 6.84600 | -75.34487 | 22605 ft | 386 kts | 346° |
| 2026-04-25 20:51 | 6.87214 | -75.35175 | 22987 ft | 388 kts | 346° |
| 2026-04-25 20:52 | 6.89840 | -75.35866 | 23354 ft | 390 kts | 346° |
| 2026-04-25 20:52 | 6.91606 | -75.36330 | 23585 ft | 392 kts | 346° |
| 2026-04-25 20:52 | 6.95116 | -75.37254 | 24016 ft | 396 kts | 346° |
| 2026-04-25 20:52 | 6.97801 | -75.37959 | 24333 ft | 399 kts | 346° |
| 2026-04-25 20:53 | 7.00526 | -75.38614 | 24644 ft | 401 kts | 349° |
| 2026-04-25 20:53 | 7.03294 | -75.39102 | 24955 ft | 404 kts | 352° |
| 2026-04-25 20:53 | 7.06109 | -75.39415 | 25265 ft | 406 kts | 355° |
| 2026-04-25 20:53 | 7.08892 | -75.39642 | 25581 ft | 408 kts | 356° |
| 2026-04-25 20:54 | 7.11751 | -75.39863 | 25904 ft | 410 kts | 356° |
| 2026-04-25 20:54 | 7.14605 | -75.40084 | 26220 ft | 412 kts | 356° |
| 2026-04-25 20:54 | 7.17449 | -75.40306 | 26527 ft | 414 kts | 356° |
| 2026-04-25 20:54 | 7.20330 | -75.40533 | 26831 ft | 416 kts | 356° |
| 2026-04-25 20:55 | 7.23229 | -75.40762 | 27131 ft | 417 kts | 356° |
| 2026-04-25 20:55 | 7.26180 | -75.40997 | 27430 ft | 419 kts | 356° |
| 2026-04-25 20:55 | 7.29087 | -75.41228 | 27716 ft | 421 kts | 356° |
| 2026-04-25 20:55 | 7.31994 | -75.41460 | 27993 ft | 422 kts | 356° |
| 2026-04-25 20:56 | 7.34951 | -75.41695 | 28270 ft | 424 kts | 356° |
| 2026-04-25 20:56 | 7.37865 | -75.41927 | 28536 ft | 426 kts | 356° |
| 2026-04-25 20:56 | 7.40857 | -75.42165 | 28803 ft | 427 kts | 355° |
| 2026-04-25 20:56 | 7.43814 | -75.42402 | 29059 ft | 429 kts | 355° |
| 2026-04-25 20:57 | 7.46776 | -75.42638 | 29309 ft | 430 kts | 355° |
| 2026-04-25 20:57 | 7.49804 | -75.42879 | 29556 ft | 432 kts | 355° |
| 2026-04-25 20:57 | 7.52830 | -75.43121 | 29797 ft | 434 kts | 355° |
| 2026-04-25 20:57 | 7.55816 | -75.43359 | 30028 ft | 435 kts | 355° |
| 2026-04-25 20:58 | 7.58842 | -75.43601 | 30256 ft | 437 kts | 355° |
| 2026-04-25 20:58 | 7.61906 | -75.43845 | 30479 ft | 438 kts | 355° |
| 2026-04-25 20:58 | 7.64948 | -75.44089 | 30695 ft | 440 kts | 355° |
| 2026-04-25 20:58 | 7.68034 | -75.44335 | 30903 ft | 441 kts | 355° |
| 2026-04-25 20:59 | 7.71074 | -75.44579 | 31101 ft | 443 kts | 355° |
| 2026-04-25 20:59 | 7.74185 | -75.44828 | 31301 ft | 444 kts | 355° |
| 2026-04-25 20:59 | 7.77214 | -75.45070 | 31510 ft | 445 kts | 355° |
| 2026-04-25 20:59 | 7.80216 | -75.45310 | 31776 ft | 444 kts | 355° |
| 2026-04-25 21:00 | 7.83007 | -75.45534 | 32036 ft | 443 kts | 355° |
| 2026-04-25 21:00 | 7.85269 | -75.45691 | 32238 ft | 443 kts | 357° |
| 2026-04-25 21:00 | 7.92391 | -75.45875 | 32836 ft | 441 kts | 359° |
| 2026-04-25 21:01 | 7.95440 | -75.45933 | 33083 ft | 440 kts | 359° |
| 2026-04-25 21:01 | 7.98500 | -75.45993 | 33327 ft | 440 kts | 359° |
| 2026-04-25 21:01 | 8.01586 | -75.46054 | 33570 ft | 439 kts | 359° |
| 2026-04-25 21:01 | 8.04594 | -75.46114 | 33801 ft | 438 kts | 359° |
| 2026-04-25 21:02 | 8.07675 | -75.46177 | 34031 ft | 438 kts | 359° |
| 2026-04-25 21:02 | 8.10709 | -75.46240 | 34229 ft | 438 kts | 359° |
| 2026-04-25 21:02 | 8.13723 | -75.46301 | 34398 ft | 439 kts | 359° |
| 2026-04-25 21:02 | 8.16776 | -75.46364 | 34560 ft | 439 kts | 359° |
| 2026-04-25 21:03 | 8.19854 | -75.46427 | 34722 ft | 440 kts | 359° |
| 2026-04-25 21:03 | 8.22889 | -75.46490 | 34880 ft | 440 kts | 359° |
| 2026-04-25 21:03 | 8.25974 | -75.46554 | 35035 ft | 441 kts | 359° |
| 2026-04-25 21:03 | 8.29004 | -75.46616 | 35181 ft | 441 kts | 359° |
| 2026-04-25 21:04 | 8.32050 | -75.46679 | 35323 ft | 442 kts | 359° |
| 2026-04-25 21:04 | 8.35140 | -75.46743 | 35461 ft | 442 kts | 359° |
| 2026-04-25 21:04 | 8.38196 | -75.46806 | 35593 ft | 443 kts | 359° |
| 2026-04-25 21:04 | 8.41292 | -75.46870 | 35722 ft | 443 kts | 359° |
| 2026-04-25 21:05 | 8.44357 | -75.46934 | 35840 ft | 444 kts | 359° |
| 2026-04-25 21:05 | 8.50583 | -75.47063 | 35851 ft | 449 kts | 359° |
| 2026-04-25 21:06 | 8.56823 | -75.47192 | 35853 ft | 454 kts | 359° |
| 2026-04-25 21:06 | 8.63166 | -75.47322 | 35854 ft | 459 kts | 359° |
| 2026-04-25 21:07 | 8.69638 | -75.47456 | 35854 ft | 464 kts | 359° |
| 2026-04-25 21:07 | 8.76112 | -75.47591 | 35854 ft | 468 kts | 359° |
| 2026-04-25 21:08 | 8.82685 | -75.47726 | 35854 ft | 471 kts | 359° |
| 2026-04-25 21:08 | 8.89245 | -75.47863 | 35853 ft | 472 kts | 359° |
| 2026-04-25 21:09 | 8.99076 | -75.48068 | 35852 ft | 472 kts | 359° |
| 2026-04-25 21:09 | 9.05602 | -75.48206 | 35853 ft | 471 kts | 359° |
| 2026-04-25 21:10 | 9.11966 | -75.48338 | 35855 ft | 468 kts | 359° |
| 2026-04-25 21:10 | 9.18509 | -75.48471 | 35853 ft | 466 kts | 359° |
| 2026-04-25 21:11 | 9.24991 | -75.48605 | 35853 ft | 466 kts | 359° |
| 2026-04-25 21:11 | 9.31430 | -75.48738 | 35853 ft | 466 kts | 359° |
| 2026-04-25 21:12 | 9.37874 | -75.48872 | 35853 ft | 466 kts | 359° |
| 2026-04-25 21:12 | 9.43222 | -75.48984 | 35853 ft | 466 kts | 359° |
| 2026-04-25 21:13 | 9.50783 | -75.49141 | 35853 ft | 466 kts | 359° |
| 2026-04-25 21:13 | 9.57240 | -75.49276 | 35853 ft | 466 kts | 359° |
| 2026-04-25 21:14 | 9.63564 | -75.49408 | 35853 ft | 466 kts | 359° |
| 2026-04-25 21:14 | 9.70052 | -75.49543 | 35853 ft | 466 kts | 359° |
| 2026-04-25 21:15 | 9.76528 | -75.49679 | 35853 ft | 466 kts | 359° |
| 2026-04-25 21:15 | 9.82994 | -75.49814 | 35853 ft | 466 kts | 359° |
| 2026-04-25 21:16 | 9.89470 | -75.49950 | 35853 ft | 466 kts | 359° |
| 2026-04-25 21:16 | 9.95937 | -75.50085 | 35853 ft | 466 kts | 359° |
| 2026-04-25 21:17 | 10.02386 | -75.50221 | 35853 ft | 466 kts | 359° |
| 2026-04-25 21:17 | 10.08852 | -75.50358 | 35853 ft | 466 kts | 359° |
| 2026-04-25 21:18 | 10.15303 | -75.50534 | 35852 ft | 466 kts | 357° |
| 2026-04-25 21:18 | 10.21789 | -75.51254 | 35853 ft | 467 kts | 351° |
| 2026-04-25 21:19 | 10.28077 | -75.52666 | 35852 ft | 468 kts | 345° |
| 2026-04-25 21:19 | 10.34355 | -75.54461 | 35853 ft | 468 kts | 345° |
| 2026-04-25 21:20 | 10.39552 | -75.55962 | 35853 ft | 468 kts | 345° |
| 2026-04-25 21:20 | 10.46855 | -75.58065 | 35853 ft | 468 kts | 345° |
| 2026-04-25 21:21 | 10.53088 | -75.59857 | 35853 ft | 468 kts | 345° |
| 2026-04-25 21:21 | 10.59336 | -75.61652 | 35853 ft | 468 kts | 345° |
| 2026-04-25 21:22 | 10.65548 | -75.63438 | 35853 ft | 468 kts | 345° |
| 2026-04-25 21:22 | 10.71829 | -75.65245 | 35852 ft | 468 kts | 345° |
| 2026-04-25 21:23 | 10.78077 | -75.67042 | 35853 ft | 468 kts | 345° |
| 2026-04-25 21:23 | 10.84323 | -75.68841 | 35853 ft | 468 kts | 345° |
| 2026-04-25 21:24 | 10.90551 | -75.70635 | 35851 ft | 468 kts | 345° |
| 2026-04-25 21:24 | 10.96831 | -75.72445 | 35850 ft | 472 kts | 345° |
| 2026-04-25 21:25 | 11.03159 | -75.74266 | 35852 ft | 475 kts | 344° |
| 2026-04-25 21:25 | 11.09514 | -75.76048 | 35853 ft | 475 kts | 345° |
| 2026-04-25 21:26 | 11.15861 | -75.77802 | 35853 ft | 475 kts | 345° |
| 2026-04-25 21:26 | 11.22238 | -75.79570 | 35853 ft | 475 kts | 345° |
| 2026-04-25 21:27 | 11.28616 | -75.81342 | 35853 ft | 475 kts | 345° |
| 2026-04-25 21:27 | 11.34965 | -75.83107 | 35853 ft | 475 kts | 345° |
| 2026-04-25 21:28 | 11.41319 | -75.84875 | 35853 ft | 475 kts | 345° |
| 2026-04-25 21:28 | 11.47667 | -75.86642 | 35853 ft | 475 kts | 345° |
| 2026-04-25 21:29 | 11.54033 | -75.88416 | 35853 ft | 475 kts | 345° |
| 2026-04-25 21:29 | 11.60406 | -75.90192 | 35853 ft | 475 kts | 345° |
| 2026-04-25 21:30 | 11.66778 | -75.91969 | 35853 ft | 475 kts | 345° |
| 2026-04-25 21:30 | 11.72060 | -75.93443 | 35853 ft | 475 kts | 345° |
| 2026-04-25 21:31 | 11.79489 | -75.95520 | 35853 ft | 475 kts | 345° |
| 2026-04-25 21:31 | 11.85848 | -75.97326 | 35853 ft | 475 kts | 344° |
| 2026-04-25 21:32 | 11.92188 | -75.99133 | 35853 ft | 475 kts | 344° |
| 2026-04-25 21:32 | 11.98535 | -76.00941 | 35853 ft | 475 kts | 344° |
| 2026-04-25 21:33 | 12.04926 | -76.02762 | 35853 ft | 475 kts | 344° |
| 2026-04-25 21:33 | 12.11268 | -76.04571 | 35852 ft | 475 kts | 344° |
| 2026-04-25 21:34 | 12.17617 | -76.06383 | 35853 ft | 475 kts | 344° |
| 2026-04-25 21:34 | 12.23948 | -76.08191 | 35853 ft | 475 kts | 344° |
| 2026-04-25 21:35 | 12.30339 | -76.10015 | 35853 ft | 475 kts | 344° |
| 2026-04-25 21:35 | 12.36658 | -76.11819 | 35853 ft | 475 kts | 344° |
| 2026-04-25 21:36 | 12.43037 | -76.13642 | 35853 ft | 475 kts | 344° |
| 2026-04-25 21:36 | 12.49374 | -76.15456 | 35853 ft | 475 kts | 344° |
| 2026-04-25 21:37 | 12.54697 | -76.16981 | 35853 ft | 475 kts | 344° |
| 2026-04-25 21:37 | 12.62108 | -76.19105 | 35853 ft | 475 kts | 344° |
| 2026-04-25 21:38 | 12.68487 | -76.20934 | 35853 ft | 475 kts | 344° |
| 2026-04-25 21:38 | 12.74830 | -76.22754 | 35853 ft | 475 kts | 344° |
| 2026-04-25 21:39 | 12.81168 | -76.24573 | 35853 ft | 475 kts | 344° |
| 2026-04-25 21:39 | 12.87507 | -76.26394 | 35853 ft | 475 kts | 344° |
| 2026-04-25 21:40 | 12.93861 | -76.28220 | 35853 ft | 475 kts | 344° |
| 2026-04-25 21:40 | 13.00203 | -76.30045 | 35852 ft | 476 kts | 345° |
| 2026-04-25 21:41 | 13.06600 | -76.31889 | 35852 ft | 477 kts | 345° |
| 2026-04-25 21:41 | 13.12990 | -76.33731 | 35853 ft | 476 kts | 346° |
| 2026-04-25 21:42 | 13.19357 | -76.35561 | 35853 ft | 476 kts | 346° |
| 2026-04-25 21:42 | 13.25740 | -76.37397 | 35853 ft | 476 kts | 346° |
| 2026-04-25 21:43 | 13.32086 | -76.39225 | 35853 ft | 476 kts | 346° |
| 2026-04-25 21:43 | 13.38464 | -76.41065 | 35853 ft | 476 kts | 346° |
| 2026-04-25 21:44 | 13.44847 | -76.42906 | 35853 ft | 476 kts | 346° |
| 2026-04-25 21:45 | 13.54383 | -76.45660 | 35853 ft | 476 kts | 346° |
| 2026-04-25 21:45 | 13.60764 | -76.47504 | 35853 ft | 476 kts | 346° |
| 2026-04-25 21:46 | 13.67112 | -76.49340 | 35853 ft | 476 kts | 346° |
| 2026-04-25 21:46 | 13.73537 | -76.51199 | 35853 ft | 476 kts | 346° |
| 2026-04-25 21:47 | 13.79735 | -76.52994 | 35853 ft | 476 kts | 346° |
| 2026-04-25 21:47 | 13.86247 | -76.54881 | 35853 ft | 476 kts | 346° |
| 2026-04-25 21:48 | 13.92588 | -76.56718 | 35853 ft | 476 kts | 346° |
| 2026-04-25 21:48 | 13.98966 | -76.58568 | 35853 ft | 476 kts | 346° |
| 2026-04-25 21:49 | 14.05348 | -76.60420 | 35852 ft | 476 kts | 346° |
| 2026-04-25 21:49 | 14.11726 | -76.62272 | 35853 ft | 476 kts | 346° |
| 2026-04-25 21:50 | 14.18090 | -76.64120 | 35857 ft | 476 kts | 346° |
| 2026-04-25 21:50 | 14.24481 | -76.65977 | 35865 ft | 476 kts | 345° |
| 2026-04-25 21:51 | 14.30884 | -76.67840 | 35873 ft | 476 kts | 345° |
| 2026-04-25 21:51 | 14.37223 | -76.69685 | 35877 ft | 476 kts | 345° |
| 2026-04-25 21:52 | 14.43578 | -76.71536 | 35879 ft | 476 kts | 345° |
| 2026-04-25 21:52 | 14.49957 | -76.73395 | 35879 ft | 476 kts | 345° |
| 2026-04-25 21:53 | 14.56328 | -76.75253 | 35879 ft | 476 kts | 345° |
| 2026-04-25 21:53 | 14.62696 | -76.77110 | 35879 ft | 476 kts | 345° |
| 2026-04-25 21:54 | 14.69079 | -76.78973 | 35879 ft | 476 kts | 345° |
| 2026-04-25 21:54 | 14.75448 | -76.80835 | 35879 ft | 476 kts | 345° |
| 2026-04-25 21:55 | 14.81804 | -76.82694 | 35879 ft | 476 kts | 345° |
| 2026-04-25 21:55 | 14.88160 | -76.84554 | 35879 ft | 476 kts | 345° |
| 2026-04-25 21:56 | 14.94529 | -76.86297 | 35880 ft | 473 kts | 349° |
| 2026-04-25 21:56 | 15.00984 | -76.87382 | 35880 ft | 469 kts | 355° |
| 2026-04-25 21:57 | 15.07500 | -76.87732 | 35879 ft | 467 kts | 1° |
| 2026-04-25 21:57 | 15.13972 | -76.87549 | 35880 ft | 466 kts | 2° |
| 2026-04-25 21:58 | 15.20449 | -76.87315 | 35879 ft | 466 kts | 2° |
| 2026-04-25 21:58 | 15.26933 | -76.87085 | 35879 ft | 466 kts | 2° |
| 2026-04-25 21:59 | 15.33421 | -76.86858 | 35879 ft | 466 kts | 2° |
| 2026-04-25 21:59 | 15.39913 | -76.86632 | 35879 ft | 466 kts | 2° |
| 2026-04-25 22:00 | 15.49600 | -76.86295 | 35879 ft | 465 kts | 2° |
| 2026-04-25 22:00 | 15.56096 | -76.86070 | 35879 ft | 465 kts | 2° |
| 2026-04-25 22:01 | 15.62551 | -76.85846 | 35879 ft | 465 kts | 2° |
| 2026-04-25 22:01 | 15.67948 | -76.85658 | 35879 ft | 465 kts | 2° |
| 2026-04-25 22:02 | 15.75504 | -76.85395 | 35879 ft | 465 kts | 2° |
| 2026-04-25 22:02 | 15.81938 | -76.85171 | 35879 ft | 465 kts | 2° |
| 2026-04-25 22:03 | 15.88423 | -76.84946 | 35879 ft | 464 kts | 2° |
| 2026-04-25 22:03 | 15.94873 | -76.84721 | 35879 ft | 464 kts | 2° |
| 2026-04-25 22:04 | 16.01348 | -76.84495 | 35879 ft | 464 kts | 2° |
| 2026-04-25 22:04 | 16.07796 | -76.84270 | 35879 ft | 464 kts | 2° |
| 2026-04-25 22:05 | 16.14260 | -76.84044 | 35879 ft | 464 kts | 2° |
| 2026-04-25 22:05 | 16.20715 | -76.83819 | 35879 ft | 464 kts | 2° |
| 2026-04-25 22:06 | 16.27159 | -76.83594 | 35879 ft | 464 kts | 2° |
| 2026-04-25 22:06 | 16.33616 | -76.83368 | 35879 ft | 463 kts | 2° |
| 2026-04-25 22:07 | 16.38969 | -76.83180 | 35879 ft | 463 kts | 2° |
| 2026-04-25 22:07 | 16.46531 | -76.82916 | 35879 ft | 463 kts | 2° |
| 2026-04-25 22:08 | 16.52973 | -76.82690 | 35879 ft | 463 kts | 2° |
| 2026-04-25 22:08 | 16.59336 | -76.82466 | 35879 ft | 463 kts | 2° |
| 2026-04-25 22:09 | 16.65829 | -76.82238 | 35879 ft | 463 kts | 2° |
| 2026-04-25 22:09 | 16.72252 | -76.82013 | 35879 ft | 463 kts | 2° |
| 2026-04-25 22:10 | 16.78673 | -76.81787 | 35879 ft | 463 kts | 2° |
| 2026-04-25 22:10 | 16.85091 | -76.81561 | 35879 ft | 462 kts | 2° |
| 2026-04-25 22:11 | 16.91532 | -76.81335 | 35879 ft | 462 kts | 2° |
| 2026-04-25 22:11 | 16.97949 | -76.81108 | 35879 ft | 462 kts | 2° |
| 2026-04-25 22:12 | 17.04402 | -76.80877 | 35879 ft | 461 kts | 1° |
| 2026-04-25 22:12 | 17.09746 | -76.80687 | 35879 ft | 461 kts | 1° |
| 2026-04-25 22:13 | 17.17206 | -76.80425 | 35879 ft | 462 kts | 1° |
| 2026-04-25 22:13 | 17.23674 | -76.80200 | 35879 ft | 462 kts | 1° |
| 2026-04-25 22:14 | 17.30084 | -76.79975 | 35879 ft | 462 kts | 1° |
| 2026-04-25 22:14 | 17.36528 | -76.79748 | 35879 ft | 462 kts | 1° |
| 2026-04-25 22:15 | 17.42918 | -76.79522 | 35879 ft | 462 kts | 1° |
| 2026-04-25 22:16 | 17.52634 | -76.79179 | 35879 ft | 462 kts | 1° |
| 2026-04-25 22:16 | 17.59034 | -76.78952 | 35879 ft | 463 kts | 1° |
| 2026-04-25 22:17 | 17.65484 | -76.78724 | 35879 ft | 462 kts | 1° |
| 2026-04-25 22:17 | 17.71941 | -76.78496 | 35879 ft | 462 kts | 1° |
| 2026-04-25 22:18 | 17.78356 | -76.78270 | 35879 ft | 462 kts | 1° |
| 2026-04-25 22:18 | 17.84798 | -76.78042 | 35879 ft | 462 kts | 1° |
| 2026-04-25 22:19 | 17.91192 | -76.78073 | 35879 ft | 462 kts | 356° |
| 2026-04-25 22:19 | 17.97581 | -76.78809 | 35879 ft | 461 kts | 350° |
| 2026-04-25 22:20 | 18.03861 | -76.80128 | 35879 ft | 461 kts | 347° |
| 2026-04-25 22:20 | 18.10160 | -76.81543 | 35879 ft | 461 kts | 347° |
| 2026-04-25 22:21 | 18.16501 | -76.82963 | 35879 ft | 461 kts | 347° |
| 2026-04-25 22:21 | 18.22691 | -76.84345 | 35879 ft | 462 kts | 347° |
| 2026-04-25 22:22 | 18.29022 | -76.85758 | 35879 ft | 462 kts | 347° |
| 2026-04-25 22:22 | 18.35295 | -76.87161 | 35879 ft | 462 kts | 347° |
| 2026-04-25 22:23 | 18.41612 | -76.88572 | 35879 ft | 463 kts | 347° |
| 2026-04-25 22:23 | 18.47927 | -76.89979 | 35879 ft | 463 kts | 347° |
| 2026-04-25 22:24 | 18.54229 | -76.91383 | 35879 ft | 463 kts | 347° |
| 2026-04-25 22:24 | 18.60607 | -76.92807 | 35879 ft | 464 kts | 347° |
| 2026-04-25 22:25 | 18.66919 | -76.94218 | 35879 ft | 464 kts | 347° |
| 2026-04-25 22:25 | 18.73223 | -76.95631 | 35879 ft | 464 kts | 347° |
| 2026-04-25 22:26 | 18.79545 | -76.97047 | 35879 ft | 464 kts | 347° |
| 2026-04-25 22:26 | 18.85534 | -76.98387 | 35879 ft | 465 kts | 347° |
| 2026-04-25 22:27 | 18.91958 | -76.99826 | 35880 ft | 464 kts | 347° |
| 2026-04-25 22:27 | 18.98383 | -77.01263 | 35879 ft | 463 kts | 346° |
| 2026-04-25 22:28 | 19.04482 | -77.02632 | 35878 ft | 464 kts | 346° |
| 2026-04-25 22:28 | 19.10676 | -77.04034 | 35879 ft | 465 kts | 346° |
| 2026-04-25 22:29 | 19.17031 | -77.05471 | 35879 ft | 466 kts | 346° |
| 2026-04-25 22:29 | 19.23310 | -77.06890 | 35879 ft | 466 kts | 346° |
| 2026-04-25 22:30 | 19.32784 | -77.09034 | 35878 ft | 466 kts | 345° |
| 2026-04-25 22:30 | 19.37968 | -77.10435 | 35879 ft | 465 kts | 342° |
| 2026-04-25 22:31 | 19.45235 | -77.12551 | 35879 ft | 465 kts | 342° |
| 2026-04-25 22:31 | 19.51356 | -77.14336 | 35879 ft | 465 kts | 342° |
| 2026-04-25 22:32 | 19.57610 | -77.16157 | 35881 ft | 465 kts | 342° |
| 2026-04-25 22:32 | 19.63863 | -77.17977 | 35893 ft | 465 kts | 342° |
| 2026-04-25 22:33 | 19.70147 | -77.19759 | 35915 ft | 465 kts | 343° |
| 2026-04-25 22:33 | 19.76365 | -77.21519 | 35940 ft | 465 kts | 343° |
| 2026-04-25 22:34 | 19.82617 | -77.23297 | 35962 ft | 464 kts | 342° |
| 2026-04-25 22:34 | 19.88874 | -77.25080 | 35979 ft | 464 kts | 342° |
| 2026-04-25 22:35 | 19.95180 | -77.26880 | 35989 ft | 464 kts | 342° |
| 2026-04-25 22:35 | 20.01223 | -77.28606 | 35993 ft | 464 kts | 342° |
| 2026-04-25 22:36 | 20.07439 | -77.30383 | 35994 ft | 464 kts | 342° |
| 2026-04-25 22:36 | 20.13677 | -77.32169 | 35993 ft | 464 kts | 342° |
| 2026-04-25 22:37 | 20.19963 | -77.33968 | 35987 ft | 464 kts | 342° |
| 2026-04-25 22:37 | 20.26189 | -77.35753 | 35980 ft | 464 kts | 342° |
| 2026-04-25 22:38 | 20.32263 | -77.37495 | 35974 ft | 464 kts | 342° |
| 2026-04-25 22:38 | 20.38535 | -77.39296 | 35967 ft | 464 kts | 342° |
| 2026-04-25 22:39 | 20.44695 | -77.41066 | 35961 ft | 464 kts | 342° |
| 2026-04-25 22:39 | 20.50926 | -77.42858 | 35954 ft | 464 kts | 342° |
| 2026-04-25 22:40 | 20.56739 | -77.44531 | 35945 ft | 464 kts | 342° |
| 2026-04-25 22:40 | 20.62335 | -77.46143 | 35936 ft | 464 kts | 342° |
| 2026-04-25 22:41 | 20.74007 | -77.49509 | 35918 ft | 464 kts | 342° |
| 2026-04-25 22:42 | 20.86661 | -77.53164 | 35910 ft | 464 kts | 342° |
| 2026-04-25 22:43 | 20.93465 | -77.55132 | 35908 ft | 465 kts | 342° |
| 2026-04-25 22:43 | 20.99477 | -77.56872 | 35908 ft | 465 kts | 342° |
| 2026-04-25 22:44 | 21.05676 | -77.58667 | 35907 ft | 464 kts | 342° |
| 2026-04-25 22:44 | 21.11912 | -77.60474 | 35907 ft | 464 kts | 342° |
| 2026-04-25 22:45 | 21.17967 | -77.62233 | 35907 ft | 464 kts | 342° |
| 2026-04-25 22:45 | 21.23942 | -77.63969 | 35907 ft | 464 kts | 342° |
| 2026-04-25 22:46 | 21.29448 | -77.65570 | 35908 ft | 464 kts | 342° |
| 2026-04-25 22:46 | 21.35185 | -77.67239 | 35908 ft | 464 kts | 342° |
| 2026-04-25 22:47 | 21.40777 | -77.68868 | 35907 ft | 464 kts | 342° |
| 2026-04-25 22:48 | 21.52014 | -77.72144 | 35908 ft | 464 kts | 342° |
| 2026-04-25 22:48 | 21.57791 | -77.73830 | 35907 ft | 464 kts | 342° |
| 2026-04-25 22:49 | 21.63111 | -77.75384 | 35907 ft | 464 kts | 342° |